Time;durP1;ratioP1;P1;durP2;ratioP2;P2;SDS_P1;SDS_P2;PMS_P1;PMS_P2;Temp;Humidity;BMP_temperature;BMP_pressure;BME280_temperature;BME280_humidity;BME280_pressure;Samples;Min_cycle;Max_cycle;Signal;HPM_P1;HPM_P2
2022/05/20 00:00:51;;;;;;;8.30;6.60;;;;;;;17.50;100.00;99658.09;4937267;29;20224;-87
2022/05/20 00:03:23;;;;;;;10.73;6.23;;;;;;;17.54;100.00;99664.88;4883224;29;20207;-86
2022/05/20 00:05:54;;;;;;;8.80;7.33;;;;;;;17.42;100.00;99655.22;4955274;28;20191;-86
2022/05/20 00:08:23;;;;;;;9.77;6.03;;;;;;;17.49;100.00;99651.03;5009520;28;20238;-87
2022/05/20 00:10:53;;;;;;;15.63;6.30;;;;;;;17.67;100.00;99645.94;5008061;28;20201;-87
2022/05/20 00:13:22;;;;;;;11.10;7.13;;;;;;;17.49;100.00;99636.81;5004855;28;20206;-86
2022/05/20 00:15:52;;;;;;;12.73;7.60;;;;;;;17.48;100.00;99640.47;5008339;28;20191;-87
2022/05/20 00:18:21;;;;;;;10.70;6.67;;;;;;;17.52;100.00;99637.38;5009804;28;20248;-87
2022/05/20 00:20:52;;;;;;;13.10;6.90;;;;;;;17.41;100.00;99634.75;4938795;29;20217;-87
2022/05/20 00:23:22;;;;;;;11.70;7.80;;;;;;;17.52;100.00;99645.41;4903557;29;20212;-87
2022/05/20 00:25:51;;;;;;;26.43;6.83;;;;;;;17.35;100.00;99662.03;4935744;29;20252;-87
2022/05/20 00:28:23;;;;;;;18.70;6.60;;;;;;;17.30;100.00;99653.56;4931825;29;20296;-87
2022/05/20 00:30:53;;;;;;;11.73;7.70;;;;;;;17.34;100.00;99642.47;4903900;29;20288;-87
2022/05/20 00:33:27;;;;;;;16.57;7.43;;;;;;;17.50;100.00;99641.16;4935931;28;20228;-86
2022/05/20 00:35:57;;;;;;;21.87;8.20;;;;;;;17.35;100.00;99616.53;4973422;28;20188;-87
2022/05/20 00:38:32;;;;;;;29.83;6.93;;;;;;;17.33;100.00;99615.81;4998568;28;20255;-87
2022/05/20 00:41:02;;;;;;;13.97;7.00;;;;;;;17.18;100.00;99626.00;5073124;28;20302;-86
2022/05/20 00:43:37;;;;;;;12.07;7.03;;;;;;;17.23;100.00;99639.00;5068793;28;20203;-86
2022/05/20 00:46:12;;;;;;;26.33;8.20;;;;;;;17.09;100.00;99629.44;5009725;28;20202;-87
2022/05/20 00:48:43;;;;;;;16.77;6.57;;;;;;;17.28;100.00;99634.09;5012448;28;20240;-87
2022/05/20 00:51:16;;;;;;;9.43;6.27;;;;;;;17.40;100.00;99633.91;4972912;28;20207;-86
2022/05/20 00:53:53;;;;;;;19.80;7.20;;;;;;;17.32;100.00;99631.03;4974871;28;20347;-87
2022/05/20 00:56:28;;;;;;;14.07;7.00;;;;;;;17.21;100.00;99633.78;4957691;28;20718;-87
2022/05/20 00:58:59;;;;;;;17.60;5.00;;;;;;;17.18;100.00;99634.03;4972813;28;20436;-86
2022/05/20 01:01:29;;;;;;;12.27;5.70;;;;;;;17.24;100.00;99628.16;4968463;28;20231;-85
2022/05/20 01:03:59;;;;;;;4.90;4.40;;;;;;;17.35;100.00;99629.91;4989888;28;20241;-86
2022/05/20 01:06:28;;;;;;;17.63;6.00;;;;;;;17.22;100.00;99632.78;5011914;28;20186;-87
2022/05/20 01:09:00;;;;;;;9.47;5.33;;;;;;;17.28;100.00;99632.28;5009199;28;20213;-87
2022/05/20 01:11:32;;;;;;;7.00;4.90;;;;;;;17.24;100.00;99633.50;4934603;29;20220;-87
2022/05/20 01:14:01;;;;;;;7.30;4.97;;;;;;;17.19;100.00;99630.38;4932201;29;20229;-86
2022/05/20 01:16:30;;;;;;;7.70;4.80;;;;;;;17.24;100.00;99633.50;4937117;29;20205;-88
2022/05/20 01:19:01;;;;;;;12.67;4.77;;;;;;;17.20;100.00;99639.25;4861203;29;20647;-87
2022/05/20 01:21:33;;;;;;;16.27;4.73;;;;;;;17.07;100.00;99626.03;4870386;29;20218;-87
2022/05/20 01:24:14;;;;;;;6.30;4.40;;;;;;;17.02;100.00;99631.78;4916675;29;20323;-87
2022/05/20 01:26:42;;;;;;;7.27;4.70;;;;;;;17.13;100.00;99631.72;4916651;29;20228;-87
2022/05/20 01:29:14;;;;;;;7.87;5.33;;;;;;;17.15;100.00;99629.75;4921881;28;20224;-87
2022/05/20 01:31:44;;;;;;;26.80;6.50;;;;;;;17.01;100.00;99639.94;4914817;29;20289;-86
2022/05/20 01:34:12;;;;;;;10.27;6.37;;;;;;;17.04;100.00;99632.50;4914360;29;20213;-87
2022/05/20 01:36:41;;;;;;;9.40;6.67;;;;;;;16.97;100.00;99631.28;4944857;28;20198;-86
2022/05/20 01:39:10;;;;;;;24.50;8.40;;;;;;;16.95;100.00;99662.69;5008281;28;20206;-87
2022/05/20 01:41:46;;;;;;;34.67;8.73;;;;;;;16.52;100.00;99670.66;5012682;28;20278;-86
2022/05/20 01:44:20;;;;;;;65.13;11.37;;;;;;;16.05;100.00;99677.94;5008927;28;20213;-86
2022/05/20 01:46:56;;;;;;;16.87;8.53;;;;;;;16.41;100.00;99655.47;5009867;28;20273;-87
2022/05/20 01:49:36;;;;;;;11.23;8.80;;;;;;;16.59;100.00;99661.16;5028809;28;20184;-86
2022/05/20 01:52:14;;;;;;;14.83;9.33;;;;;;;16.61;100.00;99659.22;5065640;28;20215;-87
2022/05/20 01:54:53;;;;;;;10.53;8.03;;;;;;;16.77;100.00;99656.16;5072122;28;20224;-85
2022/05/20 01:57:28;;;;;;;11.87;8.97;;;;;;;16.75;100.00;99666.16;5068099;28;20196;-86
2022/05/20 02:00:05;;;;;;;11.90;9.13;;;;;;;16.84;100.00;99652.03;5075435;28;20192;-86
2022/05/20 02:02:38;;;;;;;16.30;9.73;;;;;;;17.00;100.00;99660.50;5069911;28;20219;-87
2022/05/20 02:05:15;;;;;;;36.13;10.07;;;;;;;17.01;100.00;99653.31;5070230;28;20204;-87
2022/05/20 02:07:48;;;;;;;12.07;9.63;;;;;;;17.13;100.00;99650.47;5074108;28;20199;-87
2022/05/20 02:10:23;;;;;;;23.93;10.07;;;;;;;17.02;100.00;99638.97;5071641;28;20200;-87
2022/05/20 02:12:58;;;;;;;31.03;9.17;;;;;;;17.02;100.00;99645.16;5066192;28;20188;-87
2022/05/20 02:15:31;;;;;;;22.30;9.87;;;;;;;16.92;100.00;99630.84;5064533;28;20199;-87
2022/05/20 02:18:05;;;;;;;9.40;8.37;;;;;;;17.14;100.00;99628.06;5067241;28;20639;-87
2022/05/20 02:20:39;;;;;;;15.00;9.10;;;;;;;17.05;100.00;99627.97;5063239;28;20252;-87
2022/05/20 02:23:13;;;;;;;15.40;9.23;;;;;;;17.09;100.00;99629.44;5063901;28;20262;-88
2022/05/20 02:25:50;;;;;;;10.30;9.20;;;;;;;17.17;100.00;99622.44;5077349;28;20187;-87
2022/05/20 02:28:25;;;;;;;11.20;8.70;;;;;;;17.28;100.00;99632.28;5070962;28;20224;-88
2022/05/20 02:30:56;;;;;;;10.37;8.73;;;;;;;17.32;100.00;99612.28;5066604;28;20215;-87
2022/05/20 02:33:26;;;;;;;9.57;8.60;;;;;;;17.32;100.00;99619.47;5071109;28;20242;-87
2022/05/20 02:36:02;;;;;;;11.77;9.77;;;;;;;17.48;100.00;99624.38;5068682;28;20221;-88
2022/05/20 02:38:35;;;;;;;13.17;10.57;;;;;;;17.53;100.00;99617.63;5067393;28;20188;-87
2022/05/20 02:41:04;;;;;;;11.33;9.13;;;;;;;17.43;100.00;99619.41;5069747;28;20185;-86
2022/05/20 02:43:35;;;;;;;9.93;8.97;;;;;;;17.56;100.00;99617.38;5076595;28;20195;-88
2022/05/20 02:46:05;;;;;;;11.87;9.40;;;;;;;17.53;100.00;99617.63;5070930;28;20200;-87
2022/05/20 02:48:34;;;;;;;11.13;9.17;;;;;;;17.50;100.00;99619.75;5068805;28;20203;-87
2022/05/20 02:51:04;;;;;;;11.63;9.53;;;;;;;17.34;100.00;99617.50;5072222;28;20660;-87
2022/05/20 02:53:32;;;;;;;14.70;9.77;;;;;;;17.33;100.00;99607.78;5069513;28;20204;-88
2022/05/20 02:56:03;;;;;;;16.03;11.20;;;;;;;17.31;100.00;99599.88;5067216;28;20219;-87
2022/05/20 03:04:12;;;;;;;18.70;10.40;;;;;;;17.61;100.00;99614.31;5076280;28;20184;-88
2022/05/20 03:06:44;;;;;;;19.37;10.30;;;;;;;17.50;100.00;99614.38;5070298;28;20195;-87
2022/05/20 03:09:15;;;;;;;14.90;9.73;;;;;;;17.52;100.00;99625.81;5070881;28;20234;-88
2022/05/20 03:11:45;;;;;;;14.97;10.43;;;;;;;17.41;100.00;99626.72;5010186;28;20195;-85
2022/05/20 03:14:17;;;;;;;20.60;11.30;;;;;;;17.24;100.00;99632.66;5011240;28;20213;-87
2022/05/20 03:16:47;;;;;;;17.23;11.43;;;;;;;16.66;100.00;99640.13;5014212;28;20199;-87
2022/05/20 03:19:16;;;;;;;25.07;11.50;;;;;;;16.30;100.00;99669.69;5006536;28;20210;-87
2022/05/20 03:21:44;;;;;;;26.63;12.63;;;;;;;16.09;100.00;99706.13;5009102;28;20296;-88
2022/05/20 03:24:14;;;;;;;35.67;14.50;;;;;;;15.70;100.00;99729.59;5003002;28;20221;-87
2022/05/20 03:26:43;;;;;;;44.13;15.53;;;;;;;15.88;100.00;99705.13;5008903;28;20198;-87
2022/05/20 03:29:14;;;;;;;35.87;16.60;;;;;;;16.35;100.00;99688.03;4949172;28;20226;-86
2022/05/20 03:31:48;;;;;;;46.77;16.30;;;;;;;16.49;100.00;99701.16;4987636;28;20210;-87
2022/05/20 03:34:17;;;;;;;54.93;16.23;;;;;;;16.66;100.00;99649.00;4991172;28;20195;-87
2022/05/20 03:36:48;;;;;;;29.97;16.03;;;;;;;16.95;100.00;99635.94;4988330;28;20274;-87
2022/05/20 03:39:19;;;;;;;34.47;16.90;;;;;;;17.11;100.00;99616.78;4993560;28;20218;-87
2022/05/20 03:41:48;;;;;;;34.30;16.27;;;;;;;17.06;100.00;99606.44;4988772;28;20245;-87
2022/05/20 03:44:18;;;;;;;24.87;14.70;;;;;;;17.14;100.00;99624.53;4990615;28;20287;-87
2022/05/20 03:46:51;;;;;;;36.17;16.80;;;;;;;17.04;100.00;99650.38;5000434;28;20200;-87
2022/05/20 03:49:21;;;;;;;63.17;15.33;;;;;;;16.92;100.00;99657.59;5059959;28;20220;-87
2022/05/20 03:51:51;;;;;;;27.33;15.17;;;;;;;16.96;100.00;99637.63;5053971;28;20228;-88
2022/05/20 03:54:22;;;;;;;24.30;14.80;;;;;;;17.30;100.00;99637.50;5054885;28;20200;-89
2022/05/20 03:56:51;;;;;;;30.23;15.87;;;;;;;17.20;100.00;99640.09;5047190;28;20204;-87
2022/05/20 03:59:20;;;;;;;23.63;14.90;;;;;;;17.27;100.00;99640.41;5051767;28;20195;-87
2022/05/20 04:01:59;;;;;;;23.30;15.43;;;;;;;17.03;100.00;99633.47;5050354;28;20185;-88
2022/05/20 04:04:30;;;;;;;16.97;12.07;;;;;;;17.17;100.00;99632.31;5051660;28;20189;-87
2022/05/20 04:07:00;;;;;;;21.43;12.90;;;;;;;17.30;100.00;99616.09;5045473;28;20243;-86
2022/05/20 04:09:28;;;;;;;19.77;13.53;;;;;;;17.36;100.00;99600.31;5046294;28;20196;-87
2022/05/20 04:12:00;;;;;;;13.87;10.50;;;;;;;17.46;100.00;99585.16;5051545;28;20207;-87
2022/05/20 04:14:29;;;;;;;14.87;10.47;;;;;;;17.42;100.00;99589.09;5055704;28;20229;-86
2022/05/20 04:17:04;;;;;;;15.37;9.70;;;;;;;17.05;100.00;99577.97;5048562;28;20212;-88
2022/05/20 04:19:37;;;;;;;12.57;9.20;;;;;;;17.17;100.00;99581.44;5055261;28;20219;-87
2022/05/20 04:22:10;;;;;;;17.37;9.60;;;;;;;17.30;100.00;99579.44;5050038;28;20196;-87
2022/05/20 04:24:38;;;;;;;15.83;9.83;;;;;;;17.46;100.00;99571.78;5046614;28;20204;-87
2022/05/20 04:27:07;;;;;;;17.77;11.17;;;;;;;17.54;100.00;99572.94;4990628;28;20318;-88
2022/05/20 04:29:36;;;;;;;33.97;12.50;;;;;;;17.57;100.00;99591.47;4990938;28;20195;-87
2022/05/20 04:32:06;;;;;;;21.30;11.97;;;;;;;17.40;100.00;99617.00;4987513;28;20210;-88
2022/05/20 04:34:35;;;;;;;21.80;13.30;;;;;;;16.99;100.00;99655.28;4986543;28;20213;-87
2022/05/20 04:37:05;;;;;;;23.50;13.43;;;;;;;16.41;100.00;99655.47;4993274;28;20210;-86
2022/05/20 04:39:33;;;;;;;26.00;15.77;;;;;;;16.71;100.00;99641.47;4987274;28;20195;-85
2022/05/20 04:47:34;;;;;;;19.10;13.43;;;;;;;17.22;100.00;99630.09;4974088;28;20196;-86
2022/05/20 04:50:06;;;;;;;18.33;13.33;;;;;;;17.29;100.00;99650.03;4938911;28;20223;-85
2022/05/20 04:52:35;;;;;;;16.50;12.80;;;;;;;17.46;100.00;99644.09;4986970;28;20199;-87
2022/05/20 04:55:02;;;;;;;16.57;12.13;;;;;;;17.34;100.00;99613.00;4984313;28;20191;-85
2022/05/20 04:57:33;;;;;;;17.53;11.90;;;;;;;17.43;100.00;99597.97;4993194;28;20732;-86
2022/05/20 05:00:07;;;;;;;13.13;11.00;;;;;;;17.38;100.00;99614.47;5016420;28;20200;-86
2022/05/20 05:02:39;;;;;;;13.57;11.20;;;;;;;17.22;100.00;99597.97;5046966;28;20221;-86
2022/05/20 05:05:12;;;;;;;14.33;11.50;;;;;;;17.31;100.00;99591.00;5045081;28;20592;-85
2022/05/20 05:07:42;;;;;;;13.60;11.23;;;;;;;17.35;100.00;99590.59;5048858;28;20216;-86
2022/05/20 05:10:13;;;;;;;13.10;10.37;;;;;;;17.49;100.00;99578.72;5053934;28;20204;-85
2022/05/20 05:12:42;;;;;;;11.60;10.27;;;;;;;17.42;100.00;99583.75;5053752;28;21252;-85
2022/05/20 05:15:13;;;;;;;12.83;10.73;;;;;;;17.45;100.00;99590.66;5009617;28;20198;-86
2022/05/20 05:20:32;;;;;;;11.77;10.27;;;;;;;17.73;100.00;99576.63;5011770;28;20237;-86
2022/05/20 05:23:01;;;;;;;13.83;10.13;;;;;;;17.58;100.00;99588.66;5004081;28;20218;-86
2022/05/20 05:25:31;;;;;;;12.10;8.87;;;;;;;17.74;100.00;99604.25;5009879;28;20346;-86
2022/05/20 05:28:00;;;;;;;9.70;8.80;;;;;;;17.90;100.00;99588.56;5019441;28;20237;-86
2022/05/20 05:30:29;;;;;;;10.90;9.67;;;;;;;17.90;100.00;99577.84;5032246;28;20193;-86
2022/05/20 05:33:00;;;;;;;10.07;9.07;;;;;;;17.97;100.00;99578.16;5040144;28;20192;-86
2022/05/20 05:35:30;;;;;;;10.43;9.30;;;;;;;18.09;100.00;99571.69;5064472;28;20211;-87
2022/05/20 05:37:59;;;;;;;9.93;8.87;;;;;;;17.98;100.00;99585.19;5067440;28;20189;-87
2022/05/20 05:40:30;;;;;;;11.33;9.00;;;;;;;17.94;100.00;99573.88;5070691;28;20189;-87
2022/05/20 05:42:59;;;;;;;11.03;9.07;;;;;;;18.06;100.00;99565.78;5073532;28;20223;-87
2022/05/20 05:45:30;;;;;;;12.20;9.03;;;;;;;18.24;100.00;99556.94;5066433;28;20241;-86
2022/05/20 05:48:03;;;;;;;11.10;9.90;;;;;;;18.16;100.00;99555.94;5068447;28;20197;-86
2022/05/20 05:50:33;;;;;;;13.10;8.90;;;;;;;18.19;100.00;99551.13;5072125;28;20195;-86
2022/05/20 05:53:09;;;;;;;13.10;9.10;;;;;;;18.25;100.00;99544.38;5062464;28;20192;-86
2022/05/20 05:55:37;;;;;;;13.97;9.33;;;;;;;18.25;100.00;99547.91;5065669;28;20195;-86
2022/05/20 05:58:06;;;;;;;10.87;9.57;;;;;;;18.14;100.00;99539.09;5075021;28;20184;-87
2022/05/20 06:00:34;;;;;;;12.03;9.13;;;;;;;18.14;100.00;99541.78;5077275;28;20215;-87
2022/05/20 06:03:04;;;;;;;12.83;9.37;;;;;;;18.16;100.00;99518.38;5071026;28;20271;-86
2022/05/20 06:05:33;;;;;;;14.67;10.47;;;;;;;18.03;100.00;99514.09;5069830;28;20188;-86
2022/05/20 06:08:01;;;;;;;12.70;11.13;;;;;;;18.33;100.00;99532.94;5073405;28;20223;-86
2022/05/20 06:10:31;;;;;;;15.70;12.93;;;;;;;18.28;100.00;99557.50;5069561;28;20196;-87
2022/05/20 06:13:00;;;;;;;15.47;12.80;;;;;;;18.23;100.00;99562.41;5065819;28;20192;-86
2022/05/20 06:15:29;;;;;;;17.17;13.20;;;;;;;18.27;100.00;99572.75;5072645;28;20232;-87
2022/05/20 06:17:57;;;;;;;15.10;12.07;;;;;;;18.38;100.00;99568.25;5064783;28;20219;-86
2022/05/20 06:20:30;;;;;;;13.77;11.50;;;;;;;18.49;100.00;99565.44;5074747;28;20194;-86
2022/05/20 06:23:01;;;;;;;13.33;11.93;;;;;;;18.42;100.00;99559.78;5071843;28;20277;-87
2022/05/20 06:25:30;;;;;;;14.33;11.73;;;;;;;18.63;100.00;99548.97;5071847;28;20230;-87
2022/05/20 06:28:06;;;;;;;13.00;10.83;;;;;;;18.71;100.00;99565.22;5077981;28;20256;-87
2022/05/20 06:30:35;;;;;;;13.10;11.27;;;;;;;18.80;100.00;99560.84;5077514;28;20200;-87
2022/05/20 06:33:04;;;;;;;14.70;11.77;;;;;;;18.87;100.00;99570.88;5075223;28;20207;-86
2022/05/20 06:41:06;;;;;;;14.70;11.10;;;;;;;18.85;100.00;99563.97;5076947;28;20192;-86
2022/05/20 06:43:34;;;;;;;12.70;11.40;;;;;;;18.91;100.00;99554.50;5071792;28;20276;-86
2022/05/20 06:46:04;;;;;;;12.83;11.00;;;;;;;18.97;100.00;99562.84;5076282;28;20220;-86
2022/05/20 06:48:51;;;;;;;12.17;10.77;;;;;;;19.03;100.00;99548.84;5075662;28;20210;-85
2022/05/20 06:51:23;;;;;;;12.93;10.87;;;;;;;19.00;100.00;99543.75;5042285;28;20195;-85
2022/05/20 06:53:53;;;;;;;14.37;10.87;;;;;;;19.05;100.00;99541.50;5066293;28;20200;-86
2022/05/20 06:56:24;;;;;;;12.80;10.60;;;;;;;19.12;100.00;99545.31;5076946;28;20642;-85
2022/05/20 06:58:52;;;;;;;14.20;11.13;;;;;;;19.34;100.00;99535.25;5072024;28;20236;-85
2022/05/20 07:01:20;;;;;;;13.53;10.80;;;;;;;19.30;100.00;99536.50;5071553;28;20191;-86
2022/05/20 07:03:51;;;;;;;12.67;11.37;;;;;;;19.42;100.00;99521.94;5063746;28;20273;-86
2022/05/20 07:06:25;;;;;;;12.23;10.50;;;;;;;19.56;100.00;99517.94;5072586;28;20224;-86
2022/05/20 07:08:53;;;;;;;14.43;11.10;;;;;;;19.65;100.00;99509.00;5072045;28;20244;-87
2022/05/20 07:11:24;;;;;;;12.73;9.90;;;;;;;19.78;100.00;99505.97;5075691;28;20197;-90
2022/05/20 07:13:56;;;;;;;11.40;8.87;;;;;;;20.01;100.00;99510.81;5071854;28;20674;-87
2022/05/20 07:16:26;;;;;;;10.87;9.77;;;;;;;20.16;100.00;99508.47;5069614;28;20211;-87
2022/05/20 07:18:54;;;;;;;14.60;10.90;;;;;;;20.16;100.00;99505.78;5073072;28;20250;-87
2022/05/20 07:21:25;;;;;;;10.77;9.77;;;;;;;20.28;100.00;99507.28;5073041;28;20279;-87
2022/05/20 07:23:53;;;;;;;12.57;9.70;;;;;;;20.58;100.00;99511.47;5067855;28;20319;-87
2022/05/20 07:26:21;;;;;;;9.87;8.97;;;;;;;20.58;100.00;99499.88;5062375;28;20204;-87
2022/05/20 07:28:52;;;;;;;10.50;9.47;;;;;;;20.79;100.00;99492.31;5070352;28;20216;-86
2022/05/20 07:31:24;;;;;;;12.13;9.50;;;;;;;20.51;100.00;99494.25;5071924;28;20214;-87
2022/05/20 07:33:53;;;;;;;9.40;8.40;;;;;;;20.58;100.00;99487.25;5068038;28;20207;-86
2022/05/20 07:36:22;;;;;;;11.40;9.03;;;;;;;20.54;100.00;99485.00;5068248;28;20207;-86
2022/05/20 07:38:52;;;;;;;9.93;8.77;;;;;;;20.67;100.00;99485.50;5067128;28;20276;-87
2022/05/20 07:41:23;;;;;;;9.53;8.33;;;;;;;20.77;100.00;99494.34;5072886;28;20200;-87
2022/05/20 07:43:52;;;;;;;11.63;9.30;;;;;;;20.74;100.00;99485.69;5078814;28;20288;-87
2022/05/20 07:46:20;;;;;;;11.27;7.80;;;;;;;20.97;100.00;99469.91;5071927;28;20215;-86
2022/05/20 07:48:48;;;;;;;8.60;7.70;;;;;;;20.89;100.00;99462.63;5071903;28;20192;-88
2022/05/20 07:51:21;;;;;;;8.93;7.73;;;;;;;20.80;100.00;99463.53;5069729;28;20261;-88
2022/05/20 07:53:57;;;;;;;9.97;8.37;;;;;;;20.67;100.00;99474.72;5075252;28;20204;-88
2022/05/20 07:56:28;;;;;;;11.33;7.37;;;;;;;21.00;100.00;99481.22;5071424;28;20204;-87
2022/05/20 07:59:02;;;;;;;10.67;7.10;;;;;;;21.27;100.00;99482.09;5071142;28;20193;-87
2022/05/20 08:01:33;;;;;;;7.30;5.73;;;;;;;21.15;100.00;99485.03;5073973;28;20197;-85
2022/05/20 08:06:54;;;;;;;9.70;6.33;;;;;;;21.52;100.00;99470.47;5074585;28;20333;-87
2022/05/20 08:09:27;;;;;;;7.57;5.80;;;;;;;21.49;100.00;99473.47;5067846;28;20224;-87
2022/05/20 08:11:58;;;;;;;7.80;5.50;;;;;;;21.50;100.00;99475.16;5068557;28;20188;-87
2022/05/20 08:14:28;;;;;;;7.33;6.37;;;;;;;21.16;100.00;99458.94;5071823;28;20204;-87
2022/05/20 08:16:58;;;;;;;5.80;5.20;;;;;;;21.39;100.00;99460.13;5021528;28;20211;-87
2022/05/20 08:19:28;;;;;;;6.43;5.70;;;;;;;21.53;100.00;99455.16;5071416;28;20203;-86
2022/05/20 08:21:56;;;;;;;8.37;5.90;;;;;;;21.47;100.00;99458.47;5071017;28;20192;-87
2022/05/20 08:24:28;;;;;;;8.73;6.30;;;;;;;21.58;100.00;99456.34;5064589;28;20303;-87
2022/05/20 08:26:56;;;;;;;7.07;5.40;;;;;;;21.71;100.00;99455.88;5068178;28;20204;-86
2022/05/20 08:29:25;;;;;;;7.93;5.80;;;;;;;21.60;100.00;99448.94;5068956;28;20259;-86
2022/05/20 08:31:54;;;;;;;6.50;5.67;;;;;;;21.96;100.00;99448.72;5066422;28;20203;-87
2022/05/20 08:34:22;;;;;;;7.20;6.33;;;;;;;22.27;100.00;99446.31;5071612;28;20200;-87
2022/05/20 08:36:50;;;;;;;7.43;5.50;;;;;;;22.02;100.00;99441.84;5066681;28;20192;-87
2022/05/20 08:39:19;;;;;;;6.37;5.43;;;;;;;22.48;100.00;99435.03;5074502;28;20193;-87
2022/05/20 08:41:52;;;;;;;8.37;5.10;;;;;;;22.38;100.00;99434.34;5068839;28;20200;-87
2022/05/20 08:44:24;;;;;;;7.35;4.72;;;;;;;22.84;100.00;99422.91;5071139;28;20198;-87
2022/05/20 08:47:13;;;;;;;8.52;4.72;;;;;;;22.80;100.00;99407.19;5076117;28;20196;-87
2022/05/20 08:49:41;;;;;;;7.68;5.75;;;;;;;22.60;100.00;99401.31;5068730;28;20220;-87
2022/05/20 08:52:11;;;;;;;6.60;5.00;;;;;;;22.71;100.00;99402.81;5071870;28;20215;-87
2022/05/20 08:54:46;;;;;;;6.78;4.43;;;;;;;22.81;100.00;99396.22;5064833;28;20188;-87
2022/05/20 08:57:36;;;;;;;6.55;4.05;;;;;;;22.45;100.00;99393.03;5074532;28;20199;-86
2022/05/20 09:00:07;;;;;;;4.80;4.30;;;;;;;22.41;100.00;99397.09;5062361;28;20231;-87
2022/05/20 09:02:35;;;;;;;4.50;4.10;;;;;;;22.72;100.00;99399.94;4969606;28;20203;-87
2022/05/20 09:05:14;;;;;;;5.50;4.37;;;;;;;22.73;100.00;99390.81;4957104;28;20235;-87
2022/05/20 09:08:01;;;;;;;5.72;4.60;;;;;;;23.24;100.00;99391.41;4919301;28;20210;-87
2022/05/20 09:10:39;;;;;;;6.07;4.55;;;;;;;23.22;100.00;99388.06;4966840;28;20223;-87
2022/05/20 09:13:13;;;;;;;5.80;4.30;;;;;;;23.31;100.00;99383.47;4969304;28;20195;-86
2022/05/20 09:15:44;;;;;;;5.63;3.55;;;;;;;23.52;100.00;99386.41;4967992;28;20199;-87
2022/05/20 09:18:20;;;;;;;8.38;4.15;;;;;;;23.32;100.00;99386.00;4966043;28;20278;-86
2022/05/20 09:20:51;;;;;;;6.80;4.13;;;;;;;23.30;100.00;99390.72;4973212;28;20247;-86
2022/05/20 09:23:28;;;;;;;3.92;3.53;;;;;;;23.23;100.00;99384.31;4973523;28;20295;-87
2022/05/20 09:26:05;;;;;;;5.22;3.80;;;;;;;23.58;100.00;99376.78;4968856;28;20223;-85
2022/05/20 09:28:39;;;;;;;5.05;3.58;;;;;;;23.69;100.00;99368.28;5070559;28;20232;-86
2022/05/20 09:31:15;;;;;;;5.47;3.63;;;;;;;23.72;100.00;99367.94;5074165;28;20633;-86
2022/05/20 09:33:51;;;;;;;8.30;4.00;;;;;;;23.89;100.00;99363.28;5068313;28;20200;-86
2022/05/20 09:36:44;;;;;;;5.00;3.50;;;;;;;24.09;100.00;99355.53;5072852;28;20278;-85
2022/05/20 09:39:18;;;;;;;3.63;3.20;;;;;;;23.35;100.00;99358.59;5073548;28;20283;-86
2022/05/20 09:41:49;;;;;;;4.40;3.28;;;;;;;23.85;100.00;99354.69;5077656;28;20196;-86
2022/05/20 09:44:23;;;;;;;4.57;2.95;;;;;;;23.29;100.00;99340.41;5074518;28;20324;-87
2022/05/20 09:47:00;;;;;;;3.85;3.50;;;;;;;22.98;100.00;99334.94;5077988;28;20216;-85
2022/05/20 09:49:42;;;;;;;7.05;3.47;;;;;;;23.10;100.00;99328.13;5073699;28;20199;-85
2022/05/20 09:52:40;;;;;;;5.10;3.40;;;;;;;23.24;100.00;99326.53;5074369;28;20195;-85
2022/05/20 09:55:15;;;;;;;4.45;3.40;;;;;;;23.20;100.00;99327.09;5070791;28;20287;-84
2022/05/20 09:57:46;;;;;;;6.20;3.50;;;;;;;23.52;100.00;99320.69;5070630;28;20195;-85
2022/05/20 10:00:23;;;;;;;6.70;3.97;;;;;;;23.43;100.00;99320.72;5068176;28;20467;-83
2022/05/20 10:02:58;;;;;;;4.55;3.70;;;;;;;23.33;100.00;99336.31;5076588;28;20219;-85
2022/05/20 10:05:33;;;;;;;5.90;5.03;;;;;;;23.53;100.00;99334.00;5069716;28;20285;-84
2022/05/20 10:08:10;;;;;;;3.55;3.25;;;;;;;23.77;100.00;99324.97;5069965;28;20283;-85
2022/05/20 10:10:56;;;;;;;4.53;3.30;;;;;;;23.66;100.00;99322.69;5071553;28;20275;-85
2022/05/20 10:13:39;;;;;;;4.50;3.17;;;;;;;23.82;100.00;99317.16;5077098;28;20285;-84
2022/05/20 10:16:26;;;;;;;3.80;2.97;;;;;;;24.04;100.00;99307.38;5075345;28;20196;-85
2022/05/20 10:19:02;;;;;;;5.28;3.25;;;;;;;24.12;100.00;99306.44;5072283;28;20196;-84
2022/05/20 10:21:44;;;;;;;5.38;3.08;;;;;;;24.51;100.00;99309.00;5071468;28;20208;-85
2022/05/20 10:24:26;;;;;;;4.63;3.25;;;;;;;24.69;100.00;99298.66;5061918;28;20206;-85
2022/05/20 10:27:01;;;;;;;7.32;2.50;;;;;;;24.58;100.00;99290.16;5074019;28;20243;-84
2022/05/20 10:32:37;;;;;;;3.80;2.92;;;;;;;25.25;100.00;99258.41;5072583;28;20196;-85
2022/05/20 10:35:11;;;;;;;3.63;3.00;;;;;;;25.62;100.00;99265.50;5070527;28;20198;-85
2022/05/20 10:38:00;;;;;;;4.65;3.35;;;;;;;25.74;100.00;99265.03;5075119;28;20279;-85
2022/05/20 10:40:40;;;;;;;4.07;2.95;;;;;;;25.55;100.00;99274.59;5064090;28;20211;-84
2022/05/20 10:48:34;;;;;;;4.75;3.95;;;;;;;24.87;100.00;99273.06;5070855;28;20272;-85
2022/05/20 10:49:29;;;;;;;8.93;4.35;;;;;;;24.77;100.00;99248.97;5076284;28;20226;-84
2022/05/20 10:52:21;;;;;;;6.22;4.40;;;;;;;24.73;100.00;99237.69;5072343;28;20211;-85
2022/05/20 10:55:03;;;;;;;7.43;4.95;;;;;;;25.11;100.00;99224.88;5072565;28;20200;-84
2022/05/20 10:58:04;;;;;;;4.95;4.45;;;;;;;25.52;100.00;99215.31;5064354;28;20223;-84
2022/05/20 11:00:46;;;;;;;8.38;5.32;;;;;;;24.99;100.00;99218.19;5040380;28;20191;-85
2022/05/20 11:03:48;;;;;;;6.28;4.40;;;;;;;25.63;100.00;99207.50;5074459;28;20188;-84
2022/05/20 11:06:31;;;;;;;7.45;5.00;;;;;;;26.02;100.00;99203.47;5072318;28;20223;-83
2022/05/20 11:09:05;;;;;;;9.02;5.03;;;;;;;26.45;100.00;99192.56;5072118;28;20227;-83
2022/05/20 11:11:57;;;;;;;8.82;5.40;;;;;;;26.34;100.00;99177.59;5072836;28;20228;-85
2022/05/20 11:14:55;;;;;;;6.40;5.47;;;;;;;26.30;100.00;99175.50;5072734;28;20217;-83
2022/05/20 11:17:44;;;;;;;7.03;5.53;;;;;;;26.32;100.00;99181.56;5062137;28;20200;-85
2022/05/20 11:20:30;;;;;;;7.45;5.00;;;;;;;25.92;100.00;99181.28;5068992;28;20208;-84
2022/05/20 11:23:22;;;;;;;9.48;5.40;;;;;;;25.54;100.00;99183.41;5067437;28;20200;-86
2022/05/20 11:26:32;;;;;;;8.70;6.70;;;;;;;24.90;100.00;99162.44;5075038;28;20189;-85
2022/05/20 11:29:33;;;;;;;7.65;5.95;;;;;;;25.38;100.00;99149.22;5037470;28;20220;-85
2022/05/20 11:32:05;;;;;;;9.02;5.25;;;;;;;25.73;100.00;99155.63;5063361;28;20196;-86
2022/05/20 11:35:07;;;;;;;7.55;5.75;;;;;;;26.59;100.00;99139.13;5071203;28;20215;-84
2022/05/20 11:37:54;;;;;;;6.35;5.72;;;;;;;25.76;100.00;99144.38;5066051;28;20199;-84
2022/05/20 11:40:37;;;;;;;7.60;6.07;;;;;;;25.84;100.00;99156.97;5074468;28;20275;-84
2022/05/20 11:43:53;;;;;;;9.45;6.20;;;;;;;25.05;100.00;99152.44;5070110;28;20215;-84
2022/05/20 11:46:36;;;;;;;8.43;5.72;;;;;;;25.42;100.00;99134.25;5047362;28;20220;-83
2022/05/20 11:49:29;;;;;;;9.57;6.13;;;;;;;25.91;100.00;99100.88;5070033;28;20192;-85
2022/05/20 11:52:19;;;;;;;9.27;5.63;;;;;;;26.89;100.00;99093.44;5066636;28;20195;-84
2022/05/20 11:54:52;;;;;;;8.98;6.35;;;;;;;26.58;100.00;99080.38;5074326;28;20280;-84
2022/05/20 11:57:26;;;;;;;10.40;6.57;;;;;;;27.21;100.00;99079.09;5070310;28;20279;-86
2022/05/20 12:00:02;;;;;;;8.18;6.82;;;;;;;26.88;100.00;99084.47;5069657;28;20200;-85
2022/05/20 12:02:34;;;;;;;8.30;6.90;;;;;;;26.78;100.00;99092.16;5066025;28;20196;-85
2022/05/20 12:05:04;;;;;;;9.60;7.30;;;;;;;26.12;100.00;99105.41;5069617;28;20220;-89
2022/05/20 12:07:37;;;;;;;10.50;7.68;;;;;;;26.06;100.00;99107.03;5051468;28;20212;-86
2022/05/20 12:10:19;;;;;;;9.00;8.07;;;;;;;25.03;100.00;99094.88;5075080;28;20427;-86
2022/05/20 12:13:07;;;;;;;10.70;7.57;;;;;;;24.86;100.00;99085.25;5066745;28;20204;-86
2022/05/20 12:15:43;;;;;;;9.60;8.60;;;;;;;25.04;100.00;99096.53;5078572;28;20204;-85
2022/05/20 12:24:15;;;;;;;13.60;10.63;;;;;;;25.47;100.00;99103.81;5084241;28;20192;-85